Portada
METAR-TAF:

METAR-TAF

Aeropuertos :

Aeropuerto Internacional de Chengdú-Shuangliu

Chengdu, China

latitud: 30-40N, longitud: 104-01E, altitud: 508 m

Observación

El informe se hizo hace 54 minutos, a las 20:00 UTC
Viento 4 kt del sur-suroeste
Temperatura 17°C
Humedad 88%
Presión 1020 hPa
Visibilidad: 7000 m
Cielo nuboso a una altura de 5000 ft

METAR: ZUUU 192000Z 20002MPS 7000 BKN050 17/15 Q1020 NOSIG

Hora: 04:54 (20:54 UTC)

Pronóstico

El informe se hizo hace 6 horas y 45 minutos, a las 14:09 UTC
Pronóstico válido del 19 a las 18 UTC al 20 a las 18 UTC
Viento 6 kt del norte-noreste
Visibilidad: 5000 m
Nubes dispersas a una altura de 4000 ft
neblina
Temporalmente
del 20 a las 16 UTC al 20 a las 18 UTC
chaparrones de lluvia

TAF: ZUUU 191409Z 1918/2018 02003MPS 5000 BR SCT040 TX23/2007Z TN17/1922Z TEMPO 2016/2018 -SHRA

Observaciones y pronósticos meteorológicos de más de 4000 aeropuertos (mensajes METAR y TAF).

Los puntos amarillos y rojos representan las estaciones disponibles.

Ponga el ratón en el punto deseado para ver el nombre de la estación.

Haga clic para ver las observaciones y los pronósticos meteorológicos.

Para cambiar el mapa : haga clic en los botones verdes con una cruz de color negro para hacer un zoom, en el botón verde con un guión para alejar o en las flechas verdes para mapas adyacentes.


METAR-TAF: